Time;durP1;ratioP1;P1;durP2;ratioP2;P2;SDS_P1;SDS_P2;PMS_P1;PMS_P2;Temp;Humidity;BMP_temperature;BMP_pressure;BME280_temperature;BME280_humidity;BME280_pressure;Samples;Min_cycle;Max_cycle;Signal;HPM_P1;HPM_P2
2022/03/16 00:08:03;;;;;;;87.60;40.25;;;;;;;6.76;100.00;101261.75;20794595;28;20042;-79
2022/03/16 00:18:04;;;;;;;86.68;41.65;;;;;;;6.77;100.00;101261.75;20801035;28;20092;-79
2022/03/16 00:28:06;;;;;;;90.38;41.80;;;;;;;6.72;100.00;101260.81;20747678;28;20116;-79
2022/03/16 00:38:09;;;;;;;92.57;43.20;;;;;;;6.62;100.00;101254.63;20736368;28;20053;-77
2022/03/16 00:48:11;;;;;;;96.60;44.28;;;;;;;6.76;100.00;101257.41;20736652;28;20092;-78
2022/03/16 00:58:12;;;;;;;93.80;43.45;;;;;;;6.73;100.00;101262.56;20742354;28;20042;-78
2022/03/16 01:08:14;;;;;;;93.97;46.13;;;;;;;6.74;100.00;101243.50;20733479;28;20418;-77
2022/03/16 01:18:15;;;;;;;100.00;45.30;;;;;;;6.68;100.00;101244.28;20733242;28;20103;-79
2022/03/16 01:28:17;;;;;;;97.35;44.63;;;;;;;6.62;100.00;101244.22;20732771;28;20056;-77
2022/03/16 01:38:19;;;;;;;98.10;43.85;;;;;;;6.70;100.00;101244.28;20733224;28;20458;-80
2022/03/16 01:48:21;;;;;;;91.60;42.33;;;;;;;6.61;100.00;101239.88;20744256;28;20049;-80
2022/03/16 01:58:22;;;;;;;98.05;44.28;;;;;;;6.63;100.00;101239.88;20732447;28;20054;-82
2022/03/16 02:08:24;;;;;;;97.32;44.35;;;;;;;6.57;100.00;101245.88;20728229;28;20050;-78
2022/03/16 02:18:25;;;;;;;98.32;44.00;;;;;;;6.60;100.00;101232.88;20725544;28;20050;-77
2022/03/16 02:28:27;;;;;;;105.38;44.28;;;;;;;6.47;100.00;101228.38;20728616;28;20384;-78
2022/03/16 02:38:29;;;;;;;102.68;43.13;;;;;;;6.46;100.00;101233.53;20727552;28;20058;-77
2022/03/16 02:48:31;;;;;;;103.72;44.15;;;;;;;6.37;100.00;101223.88;20727771;28;20462;-78
2022/03/16 02:58:32;;;;;;;118.00;46.42;;;;;;;6.46;100.00;101241.34;20726988;28;20462;-78
2022/03/16 03:08:34;;;;;;;109.97;45.80;;;;;;;6.46;100.00;101247.44;20725562;28;20049;-78
2022/03/16 03:18:35;;;;;;;104.68;44.00;;;;;;;6.34;100.00;101248.13;20727257;28;20407;-78
2022/03/16 03:28:37;;;;;;;107.50;45.05;;;;;;;6.43;100.00;101256.06;20737480;28;20054;-78
2022/03/16 03:38:38;;;;;;;112.55;45.70;;;;;;;6.30;100.00;101250.66;20725316;28;20092;-78
2022/03/16 03:48:40;;;;;;;107.35;45.95;;;;;;;6.36;100.00;101261.16;20724836;28;20054;-77
2022/03/16 03:58:41;;;;;;;94.47;40.95;;;;;;;6.24;100.00;101261.84;20731351;28;20054;-79
2022/03/16 04:08:43;;;;;;;90.38;39.35;;;;;;;6.21;100.00;101258.31;20738924;28;20042;-77
2022/03/16 04:18:44;;;;;;;94.93;39.00;;;;;;;6.08;100.00;101259.84;20738039;28;20483;-78
2022/03/16 04:28:46;;;;;;;92.05;40.20;;;;;;;6.07;100.00;101252.91;20737200;28;20111;-78
2022/03/16 04:38:50;;;;;;;85.05;37.55;;;;;;;6.09;100.00;101257.28;20744572;28;20349;-80
2022/03/16 04:48:51;;;;;;;86.77;38.47;;;;;;;6.04;100.00;101263.25;20735666;28;20053;-79
2022/03/16 04:58:53;;;;;;;91.85;37.00;;;;;;;6.08;100.00;101259.84;20735918;28;20486;-77
2022/03/16 05:08:55;;;;;;;90.35;38.42;;;;;;;5.89;100.00;101263.81;20733534;28;20474;-77
2022/03/16 05:18:56;;;;;;;81.60;36.15;;;;;;;5.92;100.00;101263.91;20734719;28;20049;-77
2022/03/16 05:28:58;;;;;;;87.20;38.53;;;;;;;5.90;100.00;101269.06;20732733;28;20404;-77
2022/03/16 05:39:00;;;;;;;79.65;36.55;;;;;;;5.88;100.00;101288.94;20731530;28;20042;-77
2022/03/16 05:49:01;;;;;;;73.22;35.38;;;;;;;5.82;100.00;101282.75;20731588;28;20076;-80
2022/03/16 05:59:03;;;;;;;67.55;31.98;;;;;;;5.76;100.00;101278.34;20735601;28;20054;-77
2022/03/16 06:09:05;;;;;;;66.78;33.28;;;;;;;5.70;100.00;101279.94;20730914;28;20053;-77
2022/03/16 06:19:06;;;;;;;61.25;30.88;;;;;;;5.81;100.00;101286.22;20728960;28;20092;-76
2022/03/16 06:29:08;;;;;;;61.55;31.63;;;;;;;5.86;100.00;101290.66;20732370;28;20550;-77
2022/03/16 06:39:10;;;;;;;60.00;31.90;;;;;;;5.95;100.00;101315.09;20732704;28;20562;-77
2022/03/16 06:49:12;;;;;;;55.92;28.90;;;;;;;5.87;100.00;101312.31;20738764;28;20136;-77
2022/03/16 06:59:13;;;;;;;58.70;31.50;;;;;;;5.96;100.00;101316.84;20729645;28;20046;-78
2022/03/16 07:09:15;;;;;;;57.17;30.13;;;;;;;6.08;100.00;101322.22;20725800;28;20463;-77
2022/03/16 07:19:16;;;;;;;55.45;30.13;;;;;;;6.16;100.00;101320.66;20728997;28;20050;-78
2022/03/16 07:29:18;;;;;;;54.65;28.80;;;;;;;6.22;100.00;101336.34;20732225;28;20050;-77
2022/03/16 07:39:20;;;;;;;55.15;29.27;;;;;;;6.24;100.00;101339.88;20741729;28;20050;-77
2022/03/16 07:49:22;;;;;;;51.78;28.02;;;;;;;6.50;100.00;101342.00;20732755;28;20096;-80
2022/03/16 07:59:23;;;;;;;50.50;27.63;;;;;;;6.59;100.00;101336.97;20728665;28;20041;-77
2022/03/16 08:09:24;;;;;;;46.63;26.38;;;;;;;6.67;100.00;101337.97;20718635;28;20057;-76
2022/03/16 08:19:26;;;;;;;48.90;27.52;;;;;;;6.79;100.00;101321.63;20722715;28;20056;-79
2022/03/16 08:29:27;;;;;;;46.00;26.30;;;;;;;7.09;100.00;101321.19;20740298;28;20112;-76
2022/03/16 08:39:29;;;;;;;46.88;26.33;;;;;;;7.42;100.00;101313.78;20740200;28;20096;-74
2022/03/16 08:49:31;;;;;;;48.70;28.00;;;;;;;7.84;100.00;101314.25;20739927;28;20549;-74
2022/03/16 08:59:33;;;;;;;48.30;26.27;;;;;;;7.87;100.00;101299.50;20734980;28;20042;-74
2022/03/16 09:09:34;;;;;;;48.78;26.35;;;;;;;7.89;100.00;101321.25;20736656;28;20443;-74
2022/03/16 09:19:36;;;;;;;52.70;28.13;;;;;;;8.07;100.00;101304.03;20736480;28;20188;-76
2022/03/16 09:29:37;;;;;;;49.60;27.10;;;;;;;8.45;100.00;101302.66;20732114;28;20050;-75
2022/03/16 09:39:40;;;;;;;50.50;26.60;;;;;;;8.84;99.91;101277.66;20735768;28;20510;-76
2022/03/16 09:49:41;;;;;;;50.95;26.77;;;;;;;9.28;98.98;101276.97;20734304;28;20058;-78
2022/03/16 09:59:43;;;;;;;45.38;26.15;;;;;;;9.24;98.58;101272.59;20732593;28;20041;-74
2022/03/16 10:20:35;;;;;;;41.05;24.50;;;;;;;9.73;95.58;101257.06;20737225;28;20056;-75
2022/03/16 10:30:52;;;;;;;39.50;22.75;;;;;;;10.09;95.19;101252.72;20733378;28;20076;-76
2022/03/16 10:40:56;;;;;;;43.72;23.67;;;;;;;10.45;93.63;101237.03;20733595;28;20042;-76
2022/03/16 10:50:58;;;;;;;39.08;23.98;;;;;;;10.64;94.40;101237.00;20736270;28;20058;-76
2022/03/16 11:01:00;;;;;;;39.47;23.42;;;;;;;10.86;92.27;101228.19;20732347;28;20066;-75
2022/03/16 11:21:30;;;;;;;42.72;22.92;;;;;;;11.21;91.32;101219.28;20743132;28;20380;-76
2022/03/16 11:31:34;;;;;;;37.53;22.52;;;;;;;11.29;91.73;101202.63;20733084;28;20046;-78
2022/03/16 11:41:38;;;;;;;34.93;21.20;;;;;;;11.82;90.65;101205.81;20734480;28;20061;-76
2022/03/16 11:51:59;;;;;;;34.60;22.07;;;;;;;11.80;88.93;101194.44;20730878;28;20080;-76
2022/03/16 12:02:07;;;;;;;38.70;23.55;;;;;;;11.77;90.38;101189.19;20729115;28;20049;-76
2022/03/16 12:22:38;;;;;;;34.83;22.02;;;;;;;12.13;88.70;101166.19;20740919;28;20050;-75
2022/03/16 12:32:40;;;;;;;38.22;22.58;;;;;;;12.44;88.32;101130.81;20744799;28;20045;-76
2022/03/16 12:42:42;;;;;;;32.90;20.38;;;;;;;12.26;87.29;101120.50;20750462;28;20103;-80
2022/03/16 12:52:50;;;;;;;33.90;19.73;;;;;;;12.59;87.58;101120.13;20817083;23;20088;-66
2022/03/16 13:02:51;;;;;;;34.90;19.55;;;;;;;12.86;83.54;101099.63;20650755;28;20101;-66
2022/03/16 13:13:08;;;;;;;30.60;19.20;;;;;;;12.80;85.24;101092.72;20649467;28;20400;-64
2022/03/16 13:23:09;;;;;;;32.63;19.60;;;;;;;12.89;83.28;101075.94;20650068;28;20054;-68
2022/03/16 13:33:15;;;;;;;30.10;18.45;;;;;;;12.89;84.33;101057.56;20647908;28;20057;-66
2022/03/16 13:43:16;;;;;;;28.33;17.85;;;;;;;12.83;84.70;101044.47;20645601;28;20046;-65
2022/03/16 13:53:48;;;;;;;30.70;19.20;;;;;;;12.80;84.46;101062.94;20645601;28;20050;-64
2022/03/16 14:04:10;;;;;;;29.45;17.65;;;;;;;12.88;84.18;101053.16;20645521;28;20050;-65
2022/03/16 14:14:12;;;;;;;27.98;17.08;;;;;;;12.74;86.02;101018.31;20643294;28;20108;-64
2022/03/16 14:24:13;;;;;;;27.65;17.48;;;;;;;12.81;85.85;101017.38;20642078;28;20049;-67
2022/03/16 14:34:14;;;;;;;28.80;18.38;;;;;;;12.86;84.64;101009.41;20641790;28;20050;-68
2022/03/16 14:44:16;;;;;;;29.27;18.13;;;;;;;12.93;84.71;101014.53;20642406;28;20054;-65
2022/03/16 14:54:17;;;;;;;26.30;17.00;;;;;;;13.06;82.73;101025.72;20642670;28;20050;-67
2022/03/16 15:04:19;;;;;;;26.05;16.08;;;;;;;13.13;82.17;101021.22;20641709;28;20042;-67
2022/03/16 15:14:26;;;;;;;25.33;15.60;;;;;;;13.17;83.33;101022.91;20639057;28;20700;-65
2022/03/16 15:24:29;;;;;;;25.50;15.50;;;;;;;13.05;81.01;101009.09;20641466;28;20504;-65
2022/03/16 15:34:30;;;;;;;23.02;14.93;;;;;;;12.90;83.03;100987.44;20640011;28;20503;-64
2022/03/16 15:44:32;;;;;;;28.70;15.75;;;;;;;12.91;82.39;100978.66;20640526;28;20046;-64
2022/03/16 15:54:35;;;;;;;23.58;15.35;;;;;;;12.76;81.85;100969.28;20642754;28;20050;-64
2022/03/16 16:04:37;;;;;;;27.38;14.23;;;;;;;12.65;82.92;100973.78;20654478;28;20046;-65
2022/03/16 16:14:42;;;;;;;25.48;13.75;;;;;;;12.49;84.05;100965.28;20654001;28;20047;-64
2022/03/16 16:24:43;;;;;;;24.67;12.97;;;;;;;12.64;81.75;100993.09;20653578;28;20046;-67
2022/03/16 16:34:46;;;;;;;25.40;14.65;;;;;;;12.58;81.83;100973.91;20652048;28;20532;-64
2022/03/16 16:44:49;;;;;;;25.25;15.32;;;;;;;12.51;83.20;100988.03;20651090;28;20038;-67
2022/03/16 16:54:51;;;;;;;22.05;14.30;;;;;;;12.34;84.60;100976.88;20648612;28;20522;-66
2022/03/16 17:05:14;;;;;;;22.83;14.35;;;;;;;12.00;86.39;100971.19;20648347;28;20444;-64
2022/03/16 17:15:16;;;;;;;23.20;14.43;;;;;;;11.99;86.09;100983.47;20646476;28;20050;-66
2022/03/16 17:25:20;;;;;;;24.58;15.43;;;;;;;11.77;85.63;100979.31;20646052;28;20554;-64
2022/03/16 17:35:25;;;;;;;24.60;14.63;;;;;;;11.49;86.67;100984.84;20624527;28;20057;-64
2022/03/16 17:45:35;;;;;;;22.17;14.35;;;;;;;11.46;85.56;100986.66;20623587;28;20643;-63
2022/03/16 18:05:57;;;;;;;21.60;13.48;;;;;;;11.33;83.81;100957.06;20619875;28;20054;-67
2022/03/16 18:16:01;;;;;;;24.17;14.50;;;;;;;11.20;84.32;100952.81;20622948;28;20121;-67
2022/03/16 18:26:02;;;;;;;31.02;21.25;;;;;;;11.11;84.93;100947.66;20618882;28;20051;-67
2022/03/16 18:36:05;;;;;;;24.80;15.15;;;;;;;11.03;84.75;100951.22;20619230;28;20082;-67
2022/03/16 18:46:12;;;;;;;25.10;16.65;;;;;;;10.86;86.33;100966.19;20620970;28;20744;-67
2022/03/16 18:56:16;;;;;;;31.33;18.58;;;;;;;10.79;87.82;100972.38;20620038;28;20085;-67
2022/03/16 19:06:20;;;;;;;29.13;18.13;;;;;;;10.72;87.72;100962.81;20619505;28;20105;-67
2022/03/16 19:16:25;;;;;;;32.17;18.60;;;;;;;10.57;87.94;100957.69;20618149;28;20136;-67
2022/03/16 19:26:28;;;;;;;29.77;17.98;;;;;;;10.58;87.27;100964.66;20622897;28;20050;-67
2022/03/16 19:36:30;;;;;;;27.83;17.10;;;;;;;10.60;86.94;100973.38;20631235;28;20045;-67
2022/03/16 19:46:32;;;;;;;26.77;17.20;;;;;;;10.42;86.99;100979.59;20634571;28;20479;-67
2022/03/16 19:56:34;;;;;;;28.67;17.88;;;;;;;10.42;85.43;100975.22;20633454;28;20058;-67
2022/03/16 20:06:35;;;;;;;28.67;17.52;;;;;;;10.22;86.97;100959.59;20631771;28;20146;-67
2022/03/16 20:16:37;;;;;;;29.98;17.60;;;;;;;10.32;85.15;100962.22;20632235;28;20154;-67
2022/03/16 20:26:43;;;;;;;29.48;18.40;;;;;;;10.22;84.79;100956.13;20629454;28;20133;-67
2022/03/16 20:36:45;;;;;;;30.60;18.45;;;;;;;10.20;85.62;100957.88;20630104;28;20148;-67
2022/03/16 20:46:46;;;;;;;32.78;18.15;;;;;;;10.12;84.31;100957.91;20631000;28;20293;-67
2022/03/16 20:56:48;;;;;;;30.88;19.23;;;;;;;9.99;86.04;100958.84;20630335;28;20046;-67
2022/03/16 21:06:50;;;;;;;30.60;18.33;;;;;;;9.90;85.87;100957.13;20628349;28;20417;-67
2022/03/16 21:16:52;;;;;;;28.40;18.52;;;;;;;9.90;86.20;100949.28;20627734;28;20504;-65
2022/03/16 21:26:53;;;;;;;31.77;19.63;;;;;;;9.87;86.61;100957.16;20628413;28;20042;-64
2022/03/16 21:36:55;;;;;;;29.75;19.48;;;;;;;9.86;85.29;100960.63;20625989;28;20175;-65
2022/03/16 21:46:56;;;;;;;32.50;20.35;;;;;;;9.82;85.72;100942.34;20625911;28;20480;-65
2022/03/16 21:56:58;;;;;;;34.10;22.17;;;;;;;9.81;84.88;100954.56;20641343;28;20054;-64
2022/03/16 22:06:59;;;;;;;33.15;20.67;;;;;;;9.71;86.39;100960.69;20640705;28;20043;-66
2022/03/16 22:17:01;;;;;;;32.88;21.33;;;;;;;9.73;85.21;100974.66;20644411;28;20050;-67
2022/03/16 22:27:03;;;;;;;33.10;21.65;;;;;;;9.59;87.14;100965.97;20645938;28;20054;-68
2022/03/16 22:37:04;;;;;;;34.15;22.13;;;;;;;9.72;84.30;100975.50;20638479;28;20046;-68
2022/03/16 22:47:06;;;;;;;34.88;21.98;;;;;;;9.61;85.10;100972.94;20641758;28;20102;-67
2022/03/16 22:57:07;;;;;;;36.88;22.70;;;;;;;9.59;85.42;100968.59;20639833;28;20141;-67
2022/03/16 23:07:09;;;;;;;36.50;23.08;;;;;;;9.52;85.86;100955.50;20654977;23;20042;-73
2022/03/16 23:17:10;;;;;;;37.13;22.70;;;;;;;9.50;86.41;100949.44;20644255;28;20077;-73
2022/03/16 23:27:13;;;;;;;36.50;22.40;;;;;;;9.39;86.20;100945.97;20643829;28;20109;-72
2022/03/16 23:37:15;;;;;;;36.20;22.33;;;;;;;9.40;85.95;100944.25;20642942;28;20055;-72
2022/03/16 23:47:16;;;;;;;36.03;22.88;;;;;;;9.33;86.48;100938.13;20643218;28;20042;-73
2022/03/16 23:57:18;;;;;;;35.47;21.42;;;;;;;9.40;84.96;100934.66;20642349;28;20050;-73
